Cosco Tengfei — HPMO — position and weather

sailwx.info

Track history (hours):
 
Tides and Currents Weather Stations Pressure Air Temp Water Temp Dewpoint Dewpoint Depression Visibility Wind Speed Wind Dir Waves Ship Positions

Cosco Tengfei

Last reported at 2014-Sep-23 15:27 UTC. Time now 2014-Sep-23 16:25 UTC.
Position N 44°19' E 008°30'.

Length 183 m; draft 9.2 m.

Type: Cargo ship. MMSI: 355518000.

Date/timePositionNaut miles runAvg speedWind from/ knotsBaromVisibWave heightAir tempDewpointWater temp
2014-Sep-23 15:27N 44°19' E 008°30'0 0.0
2014-Sep-23 14:33N 44°19' E 008°30'0 0.0
2014-Sep-23 13:33N 44°19' E 008°30'0 0.0
2014-Sep-23 12:33N 44°19' E 008°30'0 0.0
2014-Sep-23 11:33N 44°19' E 008°30'0 0.0
2014-Sep-23 10:33N 44°19' E 008°30'0 0.0
2014-Sep-23 09:27N 44°19' E 008°30'0 0.0
2014-Sep-23 08:18N 44°19' E 008°30'1 0.7
2014-Sep-23 07:33N 44°19' E 008°30'3 3.4
2014-Sep-23 06:33N 44°16' E 008°33'4 3.7
2014-Sep-23 05:33N 44°13' E 008°31'1514.7
2014-Sep-23 04:33N 44°01' E 008°20'1616.1
2014-Sep-23 03:33N 43°46' E 008°09'5016.3
2014-Sep-23 00:28N 43°12' E 007°19'1516.6
2014-Sep-22 23:33N 43°03' E 007°03'1616.3
2014-Sep-22 22:33N 42°53' E 006°45'1616.2
2014-Sep-22 21:33N 42°43' E 006°27'1616.2
2014-Sep-22 20:33N 42°33' E 006°10'1616.2
2014-Sep-22 19:33N 42°23' E 005°53'5516.2
2014-Sep-22 16:09N 41°49' E 004°54'1016.1
2014-Sep-22 15:31N 41°43' E 004°43'3716.9
2014-Sep-22 13:20N 41°21' E 004°03'1917.3
2014-Sep-22 12:12N 41°09' E 003°43'1317.1
2014-Sep-22 11:25N 41°01' E 003°29'1416.7
2014-Sep-22 10:33N 40°52' E 003°14'1716.9
2014-Sep-22 09:33N 40°42' E 002°56'1716.9
2014-Sep-22 08:33N 40°32' E 002°38'1716.6
2014-Sep-22 07:33N 40°22' E 002°20'1616.4
2014-Sep-22 06:33N 40°12' E 002°03'1716.7
2014-Sep-22 05:33N 40°01' E 001°47'1716.8
2014-Sep-22 04:33N 39°48' E 001°33'1717.1
2014-Sep-22 03:31N 39°34' E 001°19'1717.2
2014-Sep-22 02:32N 39°21' E 001°05'1917.1
2014-Sep-22 01:24N 39°05' E 000°50'9318.2
2014-Sep-21 20:18N 37°49' W 000°17'6 6.8
2014-Sep-21 19:27N 37°44' W 000°21'1516.7
2014-Sep-21 18:33N 37°32' W 000°33'1716.3
2014-Sep-21 17:33N 37°21' W 000°48'1716.7
2014-Sep-21 16:33N 37°10' W 001°04'2017.0
2014-Sep-21 15:22N 36°57' W 001°23'6416.6
2014-Sep-21 11:31N 36°21' W 002°29'13717.2
2014-Sep-21 03:33N 35°60' W 005°16'10816.6
2014-Sep-20 21:04N 36°11' W 007°29'7416.3
2014-Sep-20 16:31N 36°29' W 008°58'6513.1
2014-Sep-20 11:33N 37°31' W 009°24'1615.7
2014-Sep-20 10:33N 37°46' W 009°17'1616.0
2014-Sep-20 09:33N 38°01' W 009°10'1615.9
2014-Sep-20 08:33N 38°15' W 009°03'1312.9
2014-Sep-20 07:33N 38°28' W 008°58'6 4.8
2014-Sep-20 06:25N 38°31' W 008°52'0 0.0
2014-Sep-20 05:31N 38°31' W 008°52'0 0.0
2014-Sep-20 04:31N 38°31' W 008°52'0 0.0
2014-Sep-20 03:31N 38°31' W 008°52'0 0.0
2014-Sep-20 02:31N 38°31' W 008°52'0 0.0
2014-Sep-20 01:31N 38°31' W 008°52'0 0.0
2014-Sep-20 00:31N 38°31' W 008°52'0 0.0
2014-Sep-19 23:31N 38°31' W 008°52'0 0.0
2014-Sep-19 22:31N 38°31' W 008°52'0 0.0
2014-Sep-19 21:31N 38°31' W 008°52'0 0.0
2014-Sep-19 20:31N 38°31' W 008°52'0 0.0
2014-Sep-19 19:22N 38°31' W 008°52'0 0.0
2014-Sep-19 18:28N 38°31' W 008°52'0 0.0
2014-Sep-19 17:28N 38°31' W 008°52'0 0.0
2014-Sep-19 16:28N 38°31' W 008°52'0 0.0
2014-Sep-19 15:28N 38°31' W 008°52'0 0.0
2014-Sep-19 14:31N 38°31' W 008°52'0 0.0
2014-Sep-19 13:28N 38°31' W 008°52'0 0.0
2014-Sep-19 12:31N 38°31' W 008°52'0 0.0
2014-Sep-19 11:31N 38°31' W 008°52'0 0.0
2014-Sep-19 10:28N 38°31' W 008°52'0 0.0
2014-Sep-19 09:31N 38°31' W 008°52'0 0.0
2014-Sep-19 08:25N 38°31' W 008°52'0 0.0
2014-Sep-19 07:31N 38°31' W 008°52'0 0.4
2014-Sep-19 06:32N 38°31' W 008°52'8 8.1
2014-Sep-19 05:33N 38°26' W 008°60'3 3.5
2014-Sep-19 04:33N 38°22' W 009°01'2 1.8
2014-Sep-19 03:33N 38°24' W 009°00'4 4.5
2014-Sep-19 02:33N 38°21' W 009°05'10 9.5
2014-Sep-19 01:33N 38°22' W 009°17'1514.7
2014-Sep-19 00:31N 38°26' W 009°36'75514.5
2014-Sep-16 20:32N 50°02' W 002°48'2318.7
2014-Sep-16 19:17N 50°08' W 002°13'1618.9
2014-Sep-16 18:25N 50°15' W 001°50'1618.7
2014-Sep-16 17:34N 50°23' W 001°28'1818.2
2014-Sep-16 16:34N 50°33' W 001°04'1110.6
2014-Sep-16 15:33N 50°44' W 001°02'1211.6
2014-Sep-16 14:33N 50°49' W 001°18'4 0.4
2014-Sep-16 05:33N 50°52' W 001°22'8 8.1
2014-Sep-16 04:33N 50°46' W 001°13'1110.9
2014-Sep-16 03:33N 50°41' W 000°58'1414.2
2014-Sep-16 02:34N 50°36' W 000°37'1717.1
2014-Sep-16 01:34N 50°33' W 000°10'1716.5
2014-Sep-16 00:32N 50°35' E 000°16'1717.0
2014-Sep-15 23:34N 50°40' E 000°41'1918.7
2014-Sep-15 22:33N 50°50' E 001°06'1919.3
2014-Sep-15 21:34N 51°02' E 001°29'1818.4
2014-Sep-15 20:34N 51°16' E 001°50'1414.0
2014-Sep-15 19:34N 51°23' E 002°09'1616.2
2014-Sep-15 18:33N 51°23' E 002°35'1313.5
2014-Sep-15 17:33N 51°23' E 002°57'1110.5
2014-Sep-15 16:33N 51°20' E 003°13'1 1.4
2014-Sep-15 15:29N 51°19' E 003°13'0 0.0
2014-Sep-15 14:29N 51°19' E 003°13'0 0.0
2014-Sep-15 13:32N 51°19' E 003°13'0 0.0
2014-Sep-15 12:32N 51°19' E 003°13'0 0.0
2014-Sep-15 11:32N 51°19' E 003°13'0 0.0
2014-Sep-15 10:29N 51°19' E 003°13'0 0.0
2014-Sep-15 09:32N 51°19' E 003°13'0 0.0
2014-Sep-15 08:32N 51°19' E 003°13'0 0.0
2014-Sep-15 07:29N 51°19' E 003°13'0 0.0
2014-Sep-15 06:32N 51°19' E 003°13'0 0.0
2014-Sep-15 05:26N 51°19' E 003°13'0 0.0
2014-Sep-15 04:29N 51°19' E 003°13'0 0.0
2014-Sep-15 03:23N 51°19' E 003°13'0 0.0
2014-Sep-15 02:32N 51°19' E 003°13'0 0.0
2014-Sep-15 01:29N 51°19' E 003°13'0 0.0
2014-Sep-14 23:23N 51°19' E 003°13'0 0.0
2014-Sep-14 20:32N 51°19' E 003°13'0 0.0
2014-Sep-14 19:32N 51°19' E 003°13'0 0.0
2014-Sep-14 18:32N 51°19' E 003°13'0 0.0
2014-Sep-14 17:32N 51°19' E 003°13'0 0.0
2014-Sep-14 16:29N 51°19' E 003°13'0 0.0
2014-Sep-14 15:32N 51°19' E 003°13'1 1.2
2014-Sep-14 14:21N 51°20' E 003°13'1 1.4
2014-Sep-14 13:33N 51°21' E 003°12'8 8.2
2014-Sep-14 12:33N 51°23' E 002°59'1210.6
2014-Sep-14 11:28N 51°22' E 002°41'4 4.2
2014-Sep-14 10:33N 51°26' E 002°42'18514.2
2014-Sep-13 21:34N 53°45' E 006°02'1615.6
2014-Sep-13 20:33N 53°50' E 006°27'3416.8
2014-Sep-13 18:32N 53°58' E 007°23'1313.9
2014-Sep-13 17:33N 53°53' E 007°45'1515.5
2014-Sep-13 16:33N 53°47' E 008°09'1716.7
2014-Sep-13 15:33N 53°36' E 008°30'  
Track history (hours):
 
Tides and Currents Weather Stations Pressure Air Temp Water Temp Dewpoint Dewpoint Depression Visibility Wind Speed Wind Dir Waves Ship Positions

Cosco Tengfei

Last reported at 2014-Sep-23 15:27 UTC. Time now 2014-Sep-23 16:25 UTC.
Position N 44°19' E 008°30'.

Length 183 m; draft 9.2 m.

Type: Cargo ship. MMSI: 355518000.

Date/timePositionNaut miles runAvg speedWind from/ knotsBaromVisibWave heightAir tempDewpointWater temp
2014-Sep-23 15:27N 44°19' E 008°30'0 0.0
2014-Sep-23 14:33N 44°19' E 008°30'0 0.0
2014-Sep-23 13:33N 44°19' E 008°30'0 0.0
2014-Sep-23 12:33N 44°19' E 008°30'0 0.0
2014-Sep-23 11:33N 44°19' E 008°30'0 0.0
2014-Sep-23 10:33N 44°19' E 008°30'0 0.0
2014-Sep-23 09:27N 44°19' E 008°30'0 0.0
2014-Sep-23 08:18N 44°19' E 008°30'1 0.7
2014-Sep-23 07:33N 44°19' E 008°30'3 3.4
2014-Sep-23 06:33N 44°16' E 008°33'4 3.7
2014-Sep-23 05:33N 44°13' E 008°31'1514.7
2014-Sep-23 04:33N 44°01' E 008°20'1616.1
2014-Sep-23 03:33N 43°46' E 008°09'5016.3
2014-Sep-23 00:28N 43°12' E 007°19'1516.6
2014-Sep-22 23:33N 43°03' E 007°03'1616.3
2014-Sep-22 22:33N 42°53' E 006°45'1616.2
2014-Sep-22 21:33N 42°43' E 006°27'1616.2
2014-Sep-22 20:33N 42°33' E 006°10'1616.2
2014-Sep-22 19:33N 42°23' E 005°53'5516.2
2014-Sep-22 16:09N 41°49' E 004°54'1016.1
2014-Sep-22 15:31N 41°43' E 004°43'3716.9
2014-Sep-22 13:20N 41°21' E 004°03'1917.3
2014-Sep-22 12:12N 41°09' E 003°43'1317.1
2014-Sep-22 11:25N 41°01' E 003°29'1416.7
2014-Sep-22 10:33N 40°52' E 003°14'1716.9
2014-Sep-22 09:33N 40°42' E 002°56'1716.9
2014-Sep-22 08:33N 40°32' E 002°38'1716.6
2014-Sep-22 07:33N 40°22' E 002°20'1616.4
2014-Sep-22 06:33N 40°12' E 002°03'1716.7
2014-Sep-22 05:33N 40°01' E 001°47'1716.8
2014-Sep-22 04:33N 39°48' E 001°33'1717.1
2014-Sep-22 03:31N 39°34' E 001°19'1717.2
2014-Sep-22 02:32N 39°21' E 001°05'1917.1
2014-Sep-22 01:24N 39°05' E 000°50'9318.2
2014-Sep-21 20:18N 37°49' W 000°17'6 6.8
2014-Sep-21 19:27N 37°44' W 000°21'1516.7
2014-Sep-21 18:33N 37°32' W 000°33'1716.3
2014-Sep-21 17:33N 37°21' W 000°48'1716.7
2014-Sep-21 16:33N 37°10' W 001°04'2017.0
2014-Sep-21 15:22N 36°57' W 001°23'6416.6
2014-Sep-21 11:31N 36°21' W 002°29'13717.2
2014-Sep-21 03:33N 35°60' W 005°16'10816.6
2014-Sep-20 21:04N 36°11' W 007°29'7416.3
2014-Sep-20 16:31N 36°29' W 008°58'6513.1
2014-Sep-20 11:33N 37°31' W 009°24'1615.7
2014-Sep-20 10:33N 37°46' W 009°17'1616.0
2014-Sep-20 09:33N 38°01' W 009°10'1615.9
2014-Sep-20 08:33N 38°15' W 009°03'1312.9
2014-Sep-20 07:33N 38°28' W 008°58'6 4.8
2014-Sep-20 06:25N 38°31' W 008°52'0 0.0
2014-Sep-20 05:31N 38°31' W 008°52'0 0.0
2014-Sep-20 04:31N 38°31' W 008°52'0 0.0
2014-Sep-20 03:31N 38°31' W 008°52'0 0.0
2014-Sep-20 02:31N 38°31' W 008°52'0 0.0
2014-Sep-20 01:31N 38°31' W 008°52'0 0.0
2014-Sep-20 00:31N 38°31' W 008°52'0 0.0
2014-Sep-19 23:31N 38°31' W 008°52'0 0.0
2014-Sep-19 22:31N 38°31' W 008°52'0 0.0
2014-Sep-19 21:31N 38°31' W 008°52'0 0.0
2014-Sep-19 20:31N 38°31' W 008°52'0 0.0
2014-Sep-19 19:22N 38°31' W 008°52'0 0.0
2014-Sep-19 18:28N 38°31' W 008°52'0 0.0
2014-Sep-19 17:28N 38°31' W 008°52'0 0.0
2014-Sep-19 16:28N 38°31' W 008°52'0 0.0
2014-Sep-19 15:28N 38°31' W 008°52'0 0.0
2014-Sep-19 14:31N 38°31' W 008°52'0 0.0
2014-Sep-19 13:28N 38°31' W 008°52'0 0.0
2014-Sep-19 12:31N 38°31' W 008°52'0 0.0
2014-Sep-19 11:31N 38°31' W 008°52'0 0.0
2014-Sep-19 10:28N 38°31' W 008°52'0 0.0
2014-Sep-19 09:31N 38°31' W 008°52'0 0.0
2014-Sep-19 08:25N 38°31' W 008°52'0 0.0
2014-Sep-19 07:31N 38°31' W 008°52'0 0.4
2014-Sep-19 06:32N 38°31' W 008°52'8 8.1
2014-Sep-19 05:33N 38°26' W 008°60'3 3.5
2014-Sep-19 04:33N 38°22' W 009°01'2 1.8
2014-Sep-19 03:33N 38°24' W 009°00'4 4.5
2014-Sep-19 02:33N 38°21' W 009°05'10 9.5
2014-Sep-19 01:33N 38°22' W 009°17'1514.7
2014-Sep-19 00:31N 38°26' W 009°36'75514.5
2014-Sep-16 20:32N 50°02' W 002°48'2318.7
2014-Sep-16 19:17N 50°08' W 002°13'1618.9
2014-Sep-16 18:25N 50°15' W 001°50'1618.7
2014-Sep-16 17:34N 50°23' W 001°28'1818.2
2014-Sep-16 16:34N 50°33' W 001°04'1110.6
2014-Sep-16 15:33N 50°44' W 001°02'1211.6
2014-Sep-16 14:33N 50°49' W 001°18'4 0.4
2014-Sep-16 05:33N 50°52' W 001°22'8 8.1
2014-Sep-16 04:33N 50°46' W 001°13'1110.9
2014-Sep-16 03:33N 50°41' W 000°58'1414.2
2014-Sep-16 02:34N 50°36' W 000°37'1717.1
2014-Sep-16 01:34N 50°33' W 000°10'1716.5
2014-Sep-16 00:32N 50°35' E 000°16'1717.0
2014-Sep-15 23:34N 50°40' E 000°41'1918.7
2014-Sep-15 22:33N 50°50' E 001°06'1919.3
2014-Sep-15 21:34N 51°02' E 001°29'1818.4
2014-Sep-15 20:34N 51°16' E 001°50'1414.0
2014-Sep-15 19:34N 51°23' E 002°09'1616.2
2014-Sep-15 18:33N 51°23' E 002°35'1313.5
2014-Sep-15 17:33N 51°23' E 002°57'1110.5
2014-Sep-15 16:33N 51°20' E 003°13'1 1.4
2014-Sep-15 15:29N 51°19' E 003°13'0 0.0
2014-Sep-15 14:29N 51°19' E 003°13'0 0.0
2014-Sep-15 13:32N 51°19' E 003°13'0 0.0
2014-Sep-15 12:32N 51°19' E 003°13'0 0.0
2014-Sep-15 11:32N 51°19' E 003°13'0 0.0
2014-Sep-15 10:29N 51°19' E 003°13'0 0.0
2014-Sep-15 09:32N 51°19' E 003°13'0 0.0
2014-Sep-15 08:32N 51°19' E 003°13'0 0.0
2014-Sep-15 07:29N 51°19' E 003°13'0 0.0
2014-Sep-15 06:32N 51°19' E 003°13'0 0.0
2014-Sep-15 05:26N 51°19' E 003°13'0 0.0
2014-Sep-15 04:29N 51°19' E 003°13'0 0.0
2014-Sep-15 03:23N 51°19' E 003°13'0 0.0
2014-Sep-15 02:32N 51°19' E 003°13'0 0.0
2014-Sep-15 01:29N 51°19' E 003°13'0 0.0
2014-Sep-14 23:23N 51°19' E 003°13'0 0.0
2014-Sep-14 20:32N 51°19' E 003°13'0 0.0
2014-Sep-14 19:32N 51°19' E 003°13'0 0.0
2014-Sep-14 18:32N 51°19' E 003°13'0 0.0
2014-Sep-14 17:32N 51°19' E 003°13'0 0.0
2014-Sep-14 16:29N 51°19' E 003°13'0 0.0
2014-Sep-14 15:32N 51°19' E 003°13'1 1.2
2014-Sep-14 14:21N 51°20' E 003°13'1 1.4
2014-Sep-14 13:33N 51°21' E 003°12'8 8.2
2014-Sep-14 12:33N 51°23' E 002°59'1210.6
2014-Sep-14 11:28N 51°22' E 002°41'4 4.2
2014-Sep-14 10:33N 51°26' E 002°42'18514.2
2014-Sep-13 21:34N 53°45' E 006°02'1615.6
2014-Sep-13 20:33N 53°50' E 006°27'3416.8
2014-Sep-13 18:32N 53°58' E 007°23'1313.9
2014-Sep-13 17:33N 53°53' E 007°45'1515.5
2014-Sep-13 16:33N 53°47' E 008°09'1716.7
2014-Sep-13 15:33N 53°36' E 008°30'  

Dump ship's entire track history